Address 0x2a2dbefb78543960725f3422ed2d81295778e40f

Txn Hash Method
Block
From
To
Value [Txn Fee]
0x7c9b5f95a27de7dc2ade6a26f0ddebd4b1ed1303823607dc65c6702ceacb5e12Burn Token228659392022-11-26 12:50:345 hrs 54 mins ago0x2a2dbefb78543960725f3422ed2d81295778e40fOUT 0xb343cf4b6eba89f51bbdbf8aca97cd2c90ad2e1e0 AVAX0.001729511467 26.614419969
0x070d1176356f2aa4ad9634e135eeaa901a645f6df53837c6db790e1ac5ce3fb30x62d33efe228659182022-11-26 12:49:495 hrs 54 mins ago0x2a2dbefb78543960725f3422ed2d81295778e40fOUT 0xa8bd0dcda436f8951519b063c3acb11e85b4e1ef0 AVAX0.002809915918 26.664350483
0x53541f92e2f64238877aa8dac3216c6aa363b9bf72e6eb9316fcbe762ae03691Claim Eggs228658882022-11-26 12:48:435 hrs 55 mins ago0x2a2dbefb78543960725f3422ed2d81295778e40fOUT Chikn Farm: EGG Token0 AVAX0.004354770954 26.8818
0x9921cfae3bb3bc6165542f07e5e9d0ef30c3099ab54106fa55e0ae224cd75acbFeed Chikn228658762022-11-26 12:48:165 hrs 56 mins ago0x2a2dbefb78543960725f3422ed2d81295778e40fOUT Chikn Farm: FEED Token0 AVAX0.001972056419 27.2816825
0x0d14109807a2a7661e6f8af502b84c38f729cb882fe87dedc470d87f77091bb9Feed Chikn228658372022-11-26 12:46:575 hrs 57 mins ago0x2a2dbefb78543960725f3422ed2d81295778e40fOUT Chikn Farm: FEED Token0 AVAX0.0019155525 26.5
0xcaf0d38220255d0beb4e2449412c7cb4bcc4ed4dad5c75f6e489d3e2ac199b77Feed Chikn228658232022-11-26 12:46:285 hrs 58 mins ago0x2a2dbefb78543960725f3422ed2d81295778e40fOUT Chikn Farm: FEED Token0 AVAX0.001949080734 26.959358399
0xa468e88ee284359b67357c0cc94b42a5b0610dbdf369fafa50f5497c9d16aadfClaim Reward228658092022-11-26 12:45:565 hrs 58 mins ago0x2a2dbefb78543960725f3422ed2d81295778e40fOUT 0x85fdca3741395b7f9faa70bf7cc40f4ac89127ff0 AVAX0.004439432993 27.019957112
0x70f2efee22eac0885522be9e4eee9c90efbfdd39cd932068ecf06760ebc6009a0xe27bf0ea228552742022-11-26 6:34:3212 hrs 10 mins ago0x2a2dbefb78543960725f3422ed2d81295778e40fOUT 0x159cfd38deac6bb7b95abff3aa42063651c3c6f90 AVAX0.001630227 26.5
0x2d1c3d65e3d41f5177c3404bc4f898b2f533f483c64bf777dd78c48dbf20131cClaim Eggs228552462022-11-26 6:33:3212 hrs 11 mins ago0x2a2dbefb78543960725f3422ed2d81295778e40fOUT Chikn Farm: EGG Token0 AVAX0.00436419918 26.94
0x646f25a8df9eb0a8481c3fc0ac5777290817903b613d54ac96dba300be399c2b0xe3f87834228552322022-11-26 6:32:5912 hrs 11 mins ago0x2a2dbefb78543960725f3422ed2d81295778e40fOUT 0x159cfd38deac6bb7b95abff3aa42063651c3c6f90 AVAX0.003091892551 26.65332705
0x6fba352362d77668252ac32ea72899c21492d75a09a0c3eb34a5199b93586392Level Up Chikn228552192022-11-26 6:32:3012 hrs 12 mins ago0x2a2dbefb78543960725f3422ed2d81295778e40fOUT Chikn Farm: EGG Token0 AVAX0.00218948621 26.757176161
0x0aaf25f017af026796cdd098e06f9e7ab755d3abe071a1fb1ecaf606df3a394eLevel Up Chikn228552072022-11-26 6:32:0512 hrs 12 mins ago0x2a2dbefb78543960725f3422ed2d81295778e40fOUT Chikn Farm: EGG Token0 AVAX0.002193933207 26.811521815
0x0b3688272f95085410a75762d04f3aa9e3574c96849def772e882842542c3542Level Up Chikn228551992022-11-26 6:31:4612 hrs 12 mins ago0x2a2dbefb78543960725f3422ed2d81295778e40fOUT Chikn Farm: EGG Token0 AVAX0.002185172624 26.704460876
0xc66bb838eeafbe38a32ed997c5e2ede750f1068d129b63e94a674a02c3203fb7Claim Reward228551712022-11-26 6:30:4512 hrs 13 mins ago0x2a2dbefb78543960725f3422ed2d81295778e40fOUT 0x85fdca3741395b7f9faa70bf7cc40f4ac89127ff0 AVAX0.00441466059 26.867548263
0xc05932711d75cf35ef62a672ca768619bc47aff188b22a9862dfde1edeea9972Feed Chikn228097712022-11-25 4:21:271 day 14 hrs ago0x2a2dbefb78543960725f3422ed2d81295778e40fOUT Chikn Farm: FEED Token0 AVAX0.001957978442 27.082430012
0x29685eba3966a3fa5e70be0beaaf4c55e981ad9d015044b0edd1dbb5f444212eFeed Chikn228097422022-11-25 4:20:291 day 14 hrs ago0x2a2dbefb78543960725f3422ed2d81295778e40fOUT Chikn Farm: FEED Token0 AVAX0.00195332215 27.018024961
0xff96f9faef70516548deedc14dfd4812c139e64a24fbb32a01765da50aa5e712Level Up Chikn228097302022-11-25 4:20:051 day 14 hrs ago0x2a2dbefb78543960725f3422ed2d81295778e40fOUT Chikn Farm: EGG Token0 AVAX0.002215938089 27.080438104
0x330eb18b1b5f0293939ad97aa20533f8b0fd7ce8fe851f8403a45a81bc72147aLevel Up Chikn228097182022-11-25 4:19:361 day 14 hrs ago0x2a2dbefb78543960725f3422ed2d81295778e40fOUT Chikn Farm: EGG Token0 AVAX0.0022441329 27.425
0xc6e8f007074da82ceb1ce3bc63f38c8225e4c8ac4c769656f704fb2740fe7e28Cns Name Change228096872022-11-25 4:18:341 day 14 hrs ago0x2a2dbefb78543960725f3422ed2d81295778e40fOUT 0xfa9e1b4f018fc16574c53937b9cc6adb8c38322b0 AVAX0.003777546925 27.425
0xadfb1da773d674cb16d04546267e8021ca794e5c96b97fa0939ebbb93e0b58a80xe27bf0ea228063552022-11-25 2:21:091 day 16 hrs ago0x2a2dbefb78543960725f3422ed2d81295778e40fOUT 0x159cfd38deac6bb7b95abff3aa42063651c3c6f90 AVAX0.002943442975 27.425
0xc30a867b50d64aadd9275544316bb8902cdab01d03235d555d65c53bd124385f0xe27bf0ea228063452022-11-25 2:20:491 day 16 hrs ago0x2a2dbefb78543960725f3422ed2d81295778e40fOUT 0x159cfd38deac6bb7b95abff3aa42063651c3c6f90 AVAX0.00168713115 27.425
0x919c78692fa4e5b513cb6b50795929809febe0cd9919e72a140285a772157fd10xe27bf0ea228063262022-11-25 2:20:111 day 16 hrs ago0x2a2dbefb78543960725f3422ed2d81295778e40fOUT 0x159cfd38deac6bb7b95abff3aa42063651c3c6f90 AVAX0.001674103607 27.213232025
0x3e0a4700431cfee1f826c25d12907b372e8c7027ae5bfe1f0a07978b76712077Burn Token228063082022-11-25 2:19:321 day 16 hrs ago0x2a2dbefb78543960725f3422ed2d81295778e40fOUT 0xb343cf4b6eba89f51bbdbf8aca97cd2c90ad2e1e0 AVAX0.001777458614 27.35225
0xf09fce1ce1a4e97b70493508f00098f179f054ada8be41ccfcfb0145b5a90f90Feed Chikn228062682022-11-25 2:18:081 day 16 hrs ago0x2a2dbefb78543960725f3422ed2d81295778e40fOUT Chikn Farm: FEED Token0 AVAX0.0019158705 26.5
0x82a94b4af412a81d3c581c5a9d25935f099843db088119b9a46e53402516cc7cFeed Chikn228062572022-11-25 2:17:441 day 16 hrs ago0x2a2dbefb78543960725f3422ed2d81295778e40fOUT Chikn Farm: FEED Token0 AVAX0.001936580524 26.786457597
[ Download CSV Export 
Latest 9 internal transactions
Parent Txn Hash Block From To Value
0x124cfb3cbcacb9fd31b25a8180f5670c6300a734c65b8e2d1aa4161a6bbff0f7227055812022-11-22 16:45:174 days 1 hr ago 0xe3ffc583dc176575eea7fd9df2a7c65f7e23f4c30x2a2dbefb78543960725f3422ed2d81295778e40f6 AVAX
0xbcd8cfc3bf8da600df7e867f8efce70502ea26923e119f0371f7c72756b19d3e224386372022-11-16 6:16:3210 days 12 hrs ago Trader Joe: Router0x2a2dbefb78543960725f3422ed2d81295778e40f4.669972599373788309 AVAX
0xd979d730c8fbd6d86b28d29f7746dcf29570749941e5f13a7d8e70beba9c7c8c218195952022-11-01 14:23:2025 days 4 hrs ago Trader Joe: Router0x2a2dbefb78543960725f3422ed2d81295778e40f1 wei
0xa68a2e003aea708c6dbf72607e40389604589d2bdd61d481bb0f94cef52143f1218085162022-11-01 8:08:1025 days 10 hrs ago Trader Joe: Router0x2a2dbefb78543960725f3422ed2d81295778e40f0.000016967905590389 AVAX
0x43305a6c60c82fd034d0bccf723a497eea39a97075d989c4d26ca9f0a96f0d4f218082872022-11-01 8:00:2525 days 10 hrs ago Trader Joe: Router0x2a2dbefb78543960725f3422ed2d81295778e40f0.000000956272260338 AVAX
0xeeca97aeaac5456a899e358b92e3850ab4390c7f24a19f7936cc67ea0c1901f3215619262022-10-26 12:37:5631 days 6 hrs ago Trader Joe: Router0x2a2dbefb78543960725f3422ed2d81295778e40f0.035696913183900147 AVAX
0x3fcf647b36b5f2704bf95dca88f93f3ebc7674449513e5b3b7b661326559408f215618332022-10-26 12:34:4831 days 6 hrs ago Trader Joe: Router0x2a2dbefb78543960725f3422ed2d81295778e40f0.005110278967183054 AVAX
0x2c0a995757ab14fa9cb34d5dc8b88f4bf3f19d7a5e63cb4a3e68fd13aa0e0a13215617862022-10-26 12:33:0931 days 6 hrs ago Trader Joe: Router0x2a2dbefb78543960725f3422ed2d81295778e40f0.030788231726356061 AVAX
0x559e7ff7de6476a6e59127ecc27f2e4d08cff595b2a7cef2a1890d32bb748eb1215617322022-10-26 12:31:2331 days 6 hrs ago Trader Joe: Router0x2a2dbefb78543960725f3422ed2d81295778e40f1.150306215532880008 AVAX
[ Download CSV Export 
Loading

Contract Name:
0

Compiler Version
0

Optimization Enabled:
0

Other Settings:
-NA-
Block Transaction Gas Used Reward
Age Block Fee Address BC Fee Address Voting Power Jailed Incoming
Block Uncle Number Difficulty Gas Used Reward
Loading
Make sure to use the "Vote Down" button for any spammy posts, and the "Vote Up" for interesting conversations.